Terminal Aerodrome Forecast
Issued by NWS

Home | Current Version | Previous Version | Text Only | Print | Product List | Glossary On
Versions: 1 2 3 4 5 6 7 8 9 10 11 12 13 14 15 16 17 18 19 20 21 22 23 24 25 26 27 28 29 30 31 32
000
FTAK31 PAFA 061138
TAFAOT
TAF
PAOT 061138Z 0612/0712 10011KT 2SM FU SCT003 SCT200
     FM061700 10008KT 6SM FU BKN050 BKN100
     FM062100 13008KT P6SM SCT050 BKN100
     FM070300 09006KT 3SM FU SCT050 BKN100
     FM071100 18006KT 5SM -SHRA BR FU BKN050 OVC100=

USA.gov is the U.S. government's official web portal to all federal, state and local government web resources and services.